Time;durP1;ratioP1;P1;durP2;ratioP2;P2;SDS_P1;SDS_P2;PMS_P1;PMS_P2;Temp;Humidity;BMP_temperature;BMP_pressure;BME280_temperature;BME280_humidity;BME280_pressure;Samples;Min_cycle;Max_cycle;Signal;HPM_P1;HPM_P2
2022/12/01 00:00:35;;;;;;;1999.90;999.90;;;7.70;99.90;;;;;;5091893;28;20209;-71
2022/12/01 00:03:01;;;;;;;1999.90;999.90;;;7.80;99.90;;;;;;5091658;28;20313;-71
2022/12/01 00:05:26;;;;;;;1999.90;999.90;;;7.80;99.90;;;;;;5091776;28;20261;-71
2022/12/01 00:07:52;;;;;;;1999.90;999.90;;;7.80;99.90;;;;;;5091632;28;20171;-71
2022/12/01 00:10:27;;;;;;;1999.90;999.90;;;7.70;99.90;;;;;;5091824;28;20167;-71
2022/12/01 00:12:54;;;;;;;1999.90;999.90;;;7.70;99.90;;;;;;5091712;28;20211;-71
2022/12/01 00:15:20;;;;;;;1999.90;999.90;;;7.60;99.90;;;;;;5091702;28;20410;-71
2022/12/01 00:17:47;;;;;;;1999.90;999.90;;;7.60;99.90;;;;;;5091392;28;20412;-71
2022/12/01 00:20:15;;;;;;;1999.90;999.90;;;7.60;99.90;;;;;;5091749;28;20409;-71
2022/12/01 00:22:44;;;;;;;1999.90;999.90;;;7.60;99.90;;;;;;5091582;28;20439;-71
2022/12/01 00:25:11;;;;;;;1999.90;999.90;;;7.60;99.90;;;;;;5091613;28;20559;-71
2022/12/01 00:27:37;;;;;;;1999.90;999.90;;;7.50;99.90;;;;;;5091329;28;20400;-72
2022/12/01 00:30:04;;;;;;;1999.90;999.90;;;7.50;99.90;;;;;;5091670;28;20499;-71
2022/12/01 00:32:30;;;;;;;1999.90;999.90;;;7.50;99.90;;;;;;5091259;28;20620;-71
2022/12/01 00:34:55;;;;;;;1999.90;999.90;;;7.50;99.90;;;;;;5091601;28;20404;-71
2022/12/01 00:37:21;;;;;;;1999.90;999.90;;;7.40;99.90;;;;;;5091382;28;20162;-71
2022/12/01 00:39:47;;;;;;;1999.90;999.90;;;7.40;99.90;;;;;;5091454;28;20623;-71
2022/12/01 00:42:12;;;;;;;1999.90;999.90;;;7.30;99.90;;;;;;5091364;28;20190;-71
2022/12/01 00:44:38;;;;;;;1999.90;999.90;;;7.30;99.90;;;;;;5094774;28;20575;-71
2022/12/01 00:47:03;;;;;;;1999.90;999.90;;;7.30;99.90;;;;;;5094929;28;20181;-71
2022/12/01 00:49:29;;;;;;;1999.90;999.90;;;7.30;99.90;;;;;;5094997;28;20253;-71
2022/12/01 00:51:55;;;;;;;1999.90;999.90;;;7.30;99.90;;;;;;5095064;28;20182;-71
2022/12/01 00:54:20;;;;;;;1999.90;999.90;;;7.40;99.90;;;;;;5094926;28;20573;-71
2022/12/01 00:56:46;;;;;;;1999.90;999.90;;;7.40;99.90;;;;;;5094729;28;20179;-71
2022/12/01 00:59:12;;;;;;;1999.90;999.90;;;7.50;99.90;;;;;;5094816;28;20264;-71
2022/12/01 01:01:38;;;;;;;1999.90;999.90;;;7.50;99.90;;;;;;5094738;28;20203;-71
2022/12/01 01:04:05;;;;;;;1999.90;999.90;;;7.60;99.90;;;;;;5094788;28;20413;-71
2022/12/01 01:06:31;;;;;;;1999.90;999.90;;;7.60;99.90;;;;;;5094559;28;20494;-71
2022/12/01 01:08:56;;;;;;;1999.90;999.90;;;7.60;99.90;;;;;;5094460;28;20464;-71
2022/12/01 01:11:22;;;;;;;1999.90;999.90;;;7.60;99.90;;;;;;5095037;28;20167;-71
2022/12/01 01:13:47;;;;;;;1999.90;999.90;;;7.60;99.90;;;;;;5094549;28;20853;-71
2022/12/01 01:16:18;;;;;;;1999.90;999.90;;;7.60;99.90;;;;;;5094447;28;20170;-71
2022/12/01 01:18:45;;;;;;;1999.90;999.90;;;7.70;99.90;;;;;;5094441;28;20174;-71
2022/12/01 01:21:14;;;;;;;1999.90;999.90;;;7.70;99.90;;;;;;5094437;28;20752;-71
2022/12/01 01:23:39;;;;;;;1999.90;999.90;;;7.60;99.90;;;;;;5094381;28;20801;-71
2022/12/01 01:26:09;;;;;;;1999.90;999.90;;;7.60;99.90;;;;;;5094135;28;20444;-71
2022/12/01 01:28:35;;;;;;;1999.90;999.90;;;7.60;99.90;;;;;;5094091;28;20457;-71
2022/12/01 01:31:05;;;;;;;1999.90;999.90;;;7.60;99.90;;;;;;5094265;28;20404;-71
2022/12/01 01:33:31;;;;;;;1999.90;999.90;;;7.60;99.90;;;;;;5095893;28;20244;-71
2022/12/01 01:36:00;;;;;;;1999.90;999.90;;;7.60;99.90;;;;;;5095811;28;20414;-71
2022/12/01 01:38:27;;;;;;;1999.90;999.90;;;7.60;99.90;;;;;;5094109;28;20472;-71
2022/12/01 01:40:53;;;;;;;1999.90;999.90;;;7.60;99.90;;;;;;5094234;28;20401;-71
2022/12/01 01:43:48;;;;;;;1999.90;999.90;;;7.70;99.90;;;;;;5094043;28;20432;-71
2022/12/01 01:46:14;;;;;;;1999.90;999.90;;;7.70;99.90;;;;;;5093914;28;20214;-71
2022/12/01 01:48:42;;;;;;;1999.90;999.90;;;7.60;99.90;;;;;;5093784;28;20400;-71
2022/12/01 01:51:09;;;;;;;1999.90;999.90;;;7.50;99.90;;;;;;5093857;28;20539;-71
2022/12/01 01:53:35;;;;;;;1999.90;999.90;;;7.50;99.90;;;;;;5094074;28;20929;-71
2022/12/01 01:56:02;;;;;;;1999.90;999.90;;;7.50;99.90;;;;;;5092676;28;20460;-71
2022/12/01 01:58:29;;;;;;;1999.90;999.90;;;7.40;99.90;;;;;;5093512;28;20166;-71
2022/12/01 02:00:55;;;;;;;1999.90;999.90;;;7.30;99.90;;;;;;5093690;28;20424;-71
2022/12/01 02:03:22;;;;;;;1999.90;999.90;;;7.20;99.90;;;;;;5093546;28;20933;-71
2022/12/01 02:05:48;;;;;;;1999.90;999.90;;;7.20;99.90;;;;;;5093516;28;20190;-71
2022/12/01 02:08:13;;;;;;;1999.90;999.90;;;7.10;99.90;;;;;;5093276;28;20881;-71
2022/12/01 02:11:01;;;;;;;1999.90;999.90;;;7.20;99.90;;;;;;5093660;28;20409;-71
2022/12/01 02:13:40;;;;;;;1999.90;999.90;;;7.20;99.90;;;;;;5093445;28;20179;-71
2022/12/01 02:16:16;;;;;;;1999.90;999.90;;;7.20;99.90;;;;;;5093250;28;20408;-71
2022/12/01 02:19:26;;;;;;;1999.90;999.90;;;7.30;99.90;;;;;;5093131;28;20783;-71
2022/12/01 02:22:21;;;;;;;1999.90;999.90;;;7.30;99.90;;;;;;5011018;28;20843;-71
2022/12/01 02:25:10;;;;;;;1999.90;999.90;;;7.30;99.90;;;;;;5010979;28;20410;-71
2022/12/01 02:27:41;;;;;;;1999.90;999.90;;;7.30;99.90;;;;;;5081953;28;20829;-71
2022/12/01 02:30:08;;;;;;;1999.90;999.90;;;7.30;99.90;;;;;;5093053;28;20393;-71
2022/12/01 02:33:01;;;;;;;1999.90;999.90;;;7.30;99.90;;;;;;5092870;28;20463;-71
2022/12/01 02:35:48;;;;;;;1999.90;999.90;;;7.40;99.90;;;;;;5093097;28;20763;-71
2022/12/01 02:38:31;;;;;;;1999.90;999.90;;;7.40;99.90;;;;;;5092782;28;20901;-71
2022/12/01 02:41:11;;;;;;;1999.90;999.90;;;7.40;99.90;;;;;;5092861;28;20495;-71
2022/12/01 02:43:55;;;;;;;1999.90;999.90;;;7.40;99.90;;;;;;5092762;28;20427;-71
2022/12/01 02:46:32;;;;;;;1999.90;999.90;;;7.40;99.90;;;;;;5092714;28;20455;-71
2022/12/01 02:49:03;;;;;;;1999.90;999.90;;;7.40;99.90;;;;;;5092578;28;20897;-71
2022/12/01 02:51:31;;;;;;;1999.90;999.90;;;7.40;99.90;;;;;;5092675;28;20386;-71
2022/12/01 02:53:58;;;;;;;1999.90;999.90;;;7.40;99.90;;;;;;5092623;28;20428;-71
2022/12/01 02:56:24;;;;;;;1999.90;999.90;;;7.30;99.90;;;;;;5092577;28;20419;-71
2022/12/01 02:58:50;;;;;;;1999.90;999.90;;;7.30;99.90;;;;;;5092397;28;20408;-71
2022/12/01 03:01:45;;;;;;;1999.90;999.90;;;7.30;99.90;;;;;;5092599;28;20400;-71
2022/12/01 03:04:31;;;;;;;1999.90;999.90;;;7.30;99.90;;;;;;5092494;28;20661;-71
2022/12/01 03:07:32;;;;;;;1999.90;999.90;;;7.30;99.90;;;;;;5092025;28;20794;-71
2022/12/01 03:10:16;;;;;;;1999.90;999.90;;;7.20;99.90;;;;;;5092429;28;20805;-71
2022/12/01 03:12:47;;;;;;;1999.90;999.90;;;7.30;99.90;;;;;;5092456;28;20905;-71
2022/12/01 03:15:21;;;;;;;1999.90;999.90;;;7.30;99.90;;;;;;5092445;28;20753;-71
2022/12/01 03:18:11;;;;;;;1999.90;999.90;;;7.30;99.90;;;;;;5092103;28;20392;-71
2022/12/01 03:20:47;;;;;;;1999.90;999.90;;;7.30;99.90;;;;;;5092357;28;20404;-71
2022/12/01 03:23:23;;;;;;;1999.90;999.90;;;7.30;99.90;;;;;;5092240;28;20511;-71
2022/12/01 03:25:53;;;;;;;1999.90;999.90;;;7.30;99.90;;;;;;5092089;28;20971;-70
2022/12/01 03:28:27;;;;;;;1999.90;999.90;;;7.30;99.90;;;;;;5092017;28;20416;-70
2022/12/01 03:30:55;;;;;;;1999.90;999.90;;;7.30;99.90;;;;;;5092328;28;20888;-71
2022/12/01 03:33:27;;;;;;;1999.90;999.90;;;7.30;99.90;;;;;;5092059;28;20565;-71
2022/12/01 03:36:06;;;;;;;1999.90;999.90;;;7.30;99.90;;;;;;5093534;28;20893;-71
2022/12/01 03:38:35;;;;;;;1999.90;999.90;;;7.30;99.90;;;;;;5093797;28;20911;-70
2022/12/01 03:41:15;;;;;;;1999.90;999.90;;;7.30;99.90;;;;;;5092421;28;20432;-71
2022/12/01 03:43:46;;;;;;;1999.90;999.90;;;7.20;99.90;;;;;;5092068;28;20427;-71
2022/12/01 03:46:41;;;;;;;1999.90;999.90;;;7.20;99.90;;;;;;5092201;28;20463;-71
2022/12/01 03:49:08;;;;;;;1999.90;999.90;;;7.10;99.90;;;;;;5092104;28;20502;-71
2022/12/01 03:51:48;;;;;;;1999.90;999.90;;;7.20;99.90;;;;;;5091982;28;21105;-71
2022/12/01 03:54:28;;;;;;;1999.90;999.90;;;7.20;99.90;;;;;;5092530;28;20897;-71
2022/12/01 03:57:05;;;;;;;1999.90;999.90;;;7.20;99.90;;;;;;5091880;28;20411;-71
2022/12/01 03:59:34;;;;;;;1999.90;999.90;;;7.20;99.90;;;;;;5092161;28;20762;-71
2022/12/01 04:02:00;;;;;;;1999.90;999.90;;;7.20;99.90;;;;;;5091916;28;20515;-71
2022/12/01 04:04:26;;;;;;;1999.90;999.90;;;7.20;99.90;;;;;;5091816;28;20495;-71
2022/12/01 04:06:52;;;;;;;1999.90;999.90;;;7.20;99.90;;;;;;5091641;28;20447;-72
2022/12/01 04:09:17;;;;;;;1999.90;999.90;;;7.20;99.90;;;;;;5091704;28;20177;-71
2022/12/01 04:14:28;;;;;;;1999.90;999.90;;;7.20;99.90;;;;;;5092186;28;20197;-71
2022/12/01 04:16:54;;;;;;;1999.90;999.90;;;7.20;99.90;;;;;;5091802;28;20405;-71
2022/12/01 04:19:20;;;;;;;1999.90;999.90;;;7.20;99.90;;;;;;5095150;28;20415;-71
2022/12/01 04:21:45;;;;;;;1999.90;999.90;;;7.10;99.90;;;;;;5095862;28;20214;-71
2022/12/01 04:24:12;;;;;;;1999.90;999.90;;;7.10;99.90;;;;;;5095841;28;20619;-71
2022/12/01 04:26:38;;;;;;;1999.90;999.90;;;7.00;99.90;;;;;;5095542;28;20197;-71
2022/12/01 04:29:06;;;;;;;1999.90;999.90;;;7.10;99.90;;;;;;5095941;28;20404;-71
2022/12/01 04:31:32;;;;;;;1999.90;999.90;;;7.00;99.90;;;;;;5095734;28;20415;-71
2022/12/01 04:33:58;;;;;;;1999.90;999.90;;;7.00;99.90;;;;;;5095546;28;20447;-71
2022/12/01 04:36:24;;;;;;;1999.90;999.90;;;7.00;99.90;;;;;;5095404;28;20175;-71
2022/12/01 04:38:51;;;;;;;1999.90;999.90;;;7.00;99.90;;;;;;5095330;28;20415;-71
2022/12/01 04:41:17;;;;;;;1999.90;999.90;;;7.00;99.90;;;;;;5095347;28;20407;-71
2022/12/01 04:43:43;;;;;;;1999.90;999.90;;;7.00;99.90;;;;;;5095354;28;20789;-71
2022/12/01 04:46:10;;;;;;;1999.90;999.90;;;7.00;99.90;;;;;;5095114;28;20448;-71
2022/12/01 04:48:37;;;;;;;1999.90;999.90;;;7.00;99.90;;;;;;5095183;28;20833;-71
2022/12/01 04:51:04;;;;;;;1999.90;999.90;;;7.10;99.90;;;;;;5095312;28;20509;-71
2022/12/01 04:53:30;;;;;;;1999.90;999.90;;;7.10;99.90;;;;;;5095219;28;20428;-71
2022/12/01 04:55:58;;;;;;;1999.90;999.90;;;7.10;99.90;;;;;;5095015;28;20401;-71
2022/12/01 04:58:23;;;;;;;1999.90;999.90;;;7.10;99.90;;;;;;5094986;28;20486;-71
2022/12/01 05:00:49;;;;;;;1999.90;999.90;;;7.20;99.90;;;;;;5095010;28;20456;-71
2022/12/01 05:03:14;;;;;;;1999.90;999.90;;;7.20;99.90;;;;;;5095070;28;20228;-71
2022/12/01 05:05:40;;;;;;;1999.90;999.90;;;7.20;99.90;;;;;;5095251;28;20251;-71
2022/12/01 05:08:06;;;;;;;1999.90;999.90;;;7.20;99.90;;;;;;5094676;28;20175;-71
2022/12/01 05:10:35;;;;;;;1999.90;999.90;;;7.20;99.90;;;;;;5094682;28;20174;-71
2022/12/01 05:13:01;;;;;;;1999.90;999.90;;;7.20;99.90;;;;;;5094637;28;20195;-71
2022/12/01 05:15:26;;;;;;;1999.90;999.90;;;7.20;99.90;;;;;;5094695;28;20447;-71
2022/12/01 05:17:52;;;;;;;1999.90;999.90;;;7.20;99.90;;;;;;5094247;28;20443;-71
2022/12/01 05:23:05;;;;;;;1999.90;999.90;;;7.30;99.90;;;;;;5094738;28;20325;-71
2022/12/01 05:25:30;;;;;;;1999.90;999.90;;;7.30;99.90;;;;;;5094329;28;20891;-71
2022/12/01 05:27:56;;;;;;;1999.90;999.90;;;7.20;99.90;;;;;;5094066;28;20566;-71
2022/12/01 05:30:21;;;;;;;1999.90;999.90;;;7.20;99.90;;;;;;5094227;28;20170;-71
2022/12/01 05:32:47;;;;;;;1999.90;999.90;;;7.30;99.90;;;;;;5094114;28;20236;-71
2022/12/01 05:35:13;;;;;;;1999.90;999.90;;;7.30;99.90;;;;;;5094161;28;20695;-71
2022/12/01 05:37:38;;;;;;;1999.90;999.90;;;7.30;99.90;;;;;;5093943;28;20174;-71
2022/12/01 05:40:05;;;;;;;1999.90;999.90;;;7.30;99.90;;;;;;5094038;28;20624;-71
2022/12/01 05:42:30;;;;;;;1999.90;999.90;;;7.30;99.90;;;;;;5093886;28;20202;-71
2022/12/01 05:44:56;;;;;;;1999.90;999.90;;;7.20;99.90;;;;;;5093976;28;20409;-71
2022/12/01 05:47:21;;;;;;;1999.90;999.90;;;7.20;99.90;;;;;;5093876;28;20586;-71
2022/12/01 05:49:47;;;;;;;1999.90;999.90;;;7.10;99.90;;;;;;5093960;28;20176;-71
2022/12/01 05:52:13;;;;;;;1999.90;999.90;;;7.10;99.90;;;;;;5093893;28;20623;-71
2022/12/01 05:54:38;;;;;;;1999.90;999.90;;;7.10;99.90;;;;;;5093838;28;20208;-71
2022/12/01 05:57:04;;;;;;;1999.90;999.90;;;7.10;99.90;;;;;;5093666;28;20166;-71
2022/12/01 05:59:29;;;;;;;1999.90;999.90;;;7.10;99.90;;;;;;5093666;28;20702;-71
2022/12/01 06:01:55;;;;;;;1999.90;999.90;;;7.10;99.90;;;;;;5093658;28;20659;-71
2022/12/01 06:04:21;;;;;;;1999.90;999.90;;;7.10;99.90;;;;;;5093741;28;20174;-71
2022/12/01 06:06:46;;;;;;;1999.90;999.90;;;7.10;99.90;;;;;;5093378;28;20231;-71
2022/12/01 06:09:12;;;;;;;1999.90;999.90;;;7.10;99.90;;;;;;5093417;28;20665;-71
2022/12/01 06:11:37;;;;;;;1999.90;999.90;;;7.10;99.90;;;;;;5093433;28;20627;-71
2022/12/01 06:14:03;;;;;;;1999.90;999.90;;;7.10;99.90;;;;;;5093481;28;20169;-71
2022/12/01 06:16:29;;;;;;;1999.90;999.90;;;7.10;99.90;;;;;;5095107;28;20171;-71
2022/12/01 06:18:54;;;;;;;1999.90;999.90;;;7.00;99.90;;;;;;5095173;28;20416;-71
2022/12/01 06:21:20;;;;;;;1999.90;999.90;;;7.00;99.90;;;;;;5095607;28;20171;-71
2022/12/01 06:23:45;;;;;;;1999.90;999.90;;;7.00;99.90;;;;;;5095464;28;20277;-71
2022/12/01 06:26:11;;;;;;;1999.90;999.90;;;7.00;99.90;;;;;;5095648;28;20221;-71
2022/12/01 06:28:36;;;;;;;1999.90;999.90;;;7.00;99.90;;;;;;5095577;28;20220;-71
2022/12/01 06:31:02;;;;;;;1999.90;999.90;;;7.00;99.90;;;;;;5095388;28;20260;-71
2022/12/01 06:33:28;;;;;;;1999.90;999.90;;;7.10;99.90;;;;;;5095340;28;20312;-71
2022/12/01 06:36:04;;;;;;;1999.90;999.90;;;7.00;99.90;;;;;;5095215;28;20170;-71
2022/12/01 06:38:32;;;;;;;1999.90;999.90;;;7.10;99.90;;;;;;5095114;28;20166;-71
2022/12/01 06:40:58;;;;;;;1999.90;999.90;;;7.10;99.90;;;;;;5094402;28;20461;-71
2022/12/01 06:43:23;;;;;;;1999.90;999.90;;;7.10;99.90;;;;;;5094874;28;20484;-71
2022/12/01 06:45:49;;;;;;;1999.90;999.90;;;7.10;99.90;;;;;;5094918;28;20956;-71
2022/12/01 06:48:15;;;;;;;1999.90;999.90;;;7.10;99.90;;;;;;5095259;28;20178;-71
2022/12/01 06:50:41;;;;;;;1999.90;999.90;;;7.10;99.90;;;;;;5095530;28;20249;-71
2022/12/01 06:53:06;;;;;;;1999.90;999.90;;;7.10;99.90;;;;;;5094688;28;20190;-71
2022/12/01 06:55:32;;;;;;;1999.90;999.90;;;7.10;99.90;;;;;;5094413;28;20404;-71
2022/12/01 06:57:59;;;;;;;1999.90;999.90;;;7.10;99.90;;;;;;5094462;28;20170;-71
2022/12/01 07:00:25;;;;;;;1999.90;999.90;;;7.00;99.90;;;;;;5095064;28;21036;-71
2022/12/01 07:02:50;;;;;;;1999.90;999.90;;;7.00;99.90;;;;;;5094800;28;20511;-71
2022/12/01 07:05:16;;;;;;;1999.90;999.90;;;7.00;99.90;;;;;;5095068;28;20277;-71
2022/12/01 07:07:41;;;;;;;1999.90;999.90;;;7.00;99.90;;;;;;5094013;28;20167;-71
2022/12/01 07:10:09;;;;;;;1999.90;999.90;;;7.10;99.90;;;;;;5092497;28;20627;-71
2022/12/01 07:12:35;;;;;;;1999.90;999.90;;;7.00;99.90;;;;;;5092411;28;20217;-71
2022/12/01 07:15:01;;;;;;;1999.90;999.90;;;7.00;99.90;;;;;;5092504;28;20982;-71
2022/12/01 07:17:27;;;;;;;1999.90;999.90;;;7.00;99.90;;;;;;5092261;28;20253;-71
2022/12/01 07:19:52;;;;;;;1999.90;999.90;;;7.10;99.90;;;;;;5092348;28;20403;-71
2022/12/01 07:22:18;;;;;;;1999.90;999.90;;;7.10;99.90;;;;;;5092100;28;20873;-71
2022/12/01 07:24:43;;;;;;;1999.90;999.90;;;7.10;99.90;;;;;;5092461;28;20261;-71
2022/12/01 07:27:09;;;;;;;1999.90;999.90;;;7.10;99.90;;;;;;5091935;28;20201;-71
2022/12/01 07:29:35;;;;;;;1999.90;999.90;;;7.10;99.90;;;;;;5092120;28;20173;-71
2022/12/01 07:32:00;;;;;;;1999.90;999.90;;;7.10;99.90;;;;;;5091964;28;20685;-71
2022/12/01 07:34:26;;;;;;;1999.90;999.90;;;7.10;99.90;;;;;;5092232;28;20631;-71
2022/12/01 07:36:51;;;;;;;1999.90;999.90;;;7.10;99.90;;;;;;5091827;28;20182;-71
2022/12/01 07:39:17;;;;;;;1999.90;999.90;;;7.20;99.90;;;;;;5092022;28;20263;-71
2022/12/01 07:41:42;;;;;;;1999.90;999.90;;;7.10;99.90;;;;;;5092039;28;20178;-71
2022/12/01 07:44:09;;;;;;;1999.90;999.90;;;7.20;99.90;;;;;;5092021;28;20169;-71
2022/12/01 07:46:35;;;;;;;1999.90;999.90;;;7.20;99.90;;;;;;5091939;28;20210;-71
2022/12/01 07:49:03;;;;;;;1999.90;999.90;;;7.20;99.90;;;;;;5091879;28;20412;-71
2022/12/01 07:51:29;;;;;;;1999.90;999.90;;;7.20;99.90;;;;;;5091870;28;20262;-71
2022/12/01 07:53:54;;;;;;;1999.90;999.90;;;7.30;99.90;;;;;;5094375;28;20455;-71
2022/12/01 07:56:21;;;;;;;1999.90;999.90;;;7.30;99.90;;;;;;5096162;28;20550;-71
2022/12/01 07:58:47;;;;;;;1999.90;999.90;;;7.30;99.90;;;;;;5095861;28;20175;-71
2022/12/01 08:01:16;;;;;;;1999.90;999.90;;;7.30;99.90;;;;;;5095987;28;20411;-71
2022/12/01 08:03:42;;;;;;;1999.90;999.90;;;7.30;99.90;;;;;;5095839;28;20187;-71
2022/12/01 08:06:08;;;;;;;1999.90;999.90;;;7.40;99.90;;;;;;5095641;28;20443;-71
2022/12/01 08:08:36;;;;;;;1999.90;999.90;;;7.40;99.90;;;;;;5095693;28;20400;-71
2022/12/01 08:11:05;;;;;;;1999.90;999.90;;;7.40;99.90;;;;;;5095985;28;20396;-71
2022/12/01 08:13:31;;;;;;;1999.90;999.90;;;7.40;99.90;;;;;;5095679;28;20465;-71
2022/12/01 08:15:56;;;;;;;1999.90;999.90;;;7.40;99.90;;;;;;5095648;28;20400;-71
2022/12/01 08:18:23;;;;;;;1999.90;999.90;;;7.50;99.90;;;;;;5095534;28;20483;-71
2022/12/01 08:20:49;;;;;;;1999.90;999.90;;;7.50;99.90;;;;;;5095605;28;20196;-71
2022/12/01 08:23:15;;;;;;;1999.90;999.90;;;7.40;99.90;;;;;;5095646;28;20424;-71
2022/12/01 08:25:41;;;;;;;1999.90;999.90;;;7.30;99.90;;;;;;5095262;28;20976;-71
2022/12/01 08:28:06;;;;;;;1999.90;999.90;;;7.30;99.90;;;;;;5095128;28;20404;-71
2022/12/01 08:30:32;;;;;;;1999.90;999.90;;;7.20;99.90;;;;;;5095502;28;20166;-71
2022/12/01 08:32:57;;;;;;;1999.90;999.90;;;7.20;99.90;;;;;;5095176;28;20232;-71
2022/12/01 08:35:24;;;;;;;1999.90;999.90;;;7.20;99.90;;;;;;5095224;28;20952;-71
2022/12/01 08:37:53;;;;;;;1999.90;999.90;;;7.20;99.90;;;;;;5095000;28;20174;-71
2022/12/01 08:40:19;;;;;;;1999.90;999.90;;;7.20;99.90;;;;;;5095258;28;20405;-71
2022/12/01 08:42:45;;;;;;;1999.90;999.90;;;7.10;99.90;;;;;;5095168;28;20424;-71
2022/12/01 08:45:11;;;;;;;1999.90;999.90;;;7.10;99.90;;;;;;5095107;28;20841;-71
2022/12/01 08:47:36;;;;;;;1999.90;999.90;;;7.10;99.90;;;;;;5094852;28;20166;-71
2022/12/01 08:50:03;;;;;;;1999.90;999.90;;;7.10;99.90;;;;;;5094976;28;20162;-71
2022/12/01 08:52:33;;;;;;;1999.90;999.90;;;7.10;99.90;;;;;;5094962;28;20182;-71
2022/12/01 08:54:59;;;;;;;1999.90;999.90;;;7.20;99.90;;;;;;5094963;28;20393;-71
2022/12/01 08:57:24;;;;;;;1999.90;999.90;;;7.30;99.90;;;;;;5094709;28;20894;-71
2022/12/01 08:59:50;;;;;;;1999.90;999.90;;;7.30;99.90;;;;;;5094814;28;20738;-71
2022/12/01 09:02:21;;;;;;;1999.90;999.90;;;7.40;99.90;;;;;;5094669;28;20481;-71
2022/12/01 09:04:48;;;;;;;1999.90;999.90;;;7.50;99.90;;;;;;5094297;28;20232;-71
2022/12/01 09:07:15;;;;;;;1999.90;999.90;;;7.50;99.90;;;;;;5094335;28;21070;-71
2022/12/01 09:09:41;;;;;;;1999.90;999.90;;;7.60;99.90;;;;;;5094590;28;20449;-71
2022/12/01 09:12:08;;;;;;;1999.90;999.90;;;7.60;99.90;;;;;;5094602;28;20474;-71
2022/12/01 09:14:40;;;;;;;1999.90;999.90;;;7.70;99.90;;;;;;5086809;28;20420;-69
2022/12/01 09:17:07;;;;;;;1999.90;999.90;;;7.60;99.90;;;;;;5074095;28;20462;-69
2022/12/01 09:19:33;;;;;;;1999.90;999.90;;;7.60;99.90;;;;;;5074066;28;20770;-69
2022/12/01 09:21:59;;;;;;;1999.90;999.90;;;7.70;99.90;;;;;;5074034;28;20517;-69
2022/12/01 09:24:25;;;;;;;1999.90;999.90;;;7.60;99.90;;;;;;5074179;28;20504;-69
2022/12/01 09:26:57;;;;;;;1999.90;999.90;;;7.60;99.90;;;;;;5073793;28;20672;-70
2022/12/01 09:29:23;;;;;;;1999.90;999.90;;;7.60;99.90;;;;;;5074401;28;20250;-69
2022/12/01 09:31:49;;;;;;;1999.90;999.90;;;7.60;99.90;;;;;;5074578;28;20397;-68
2022/12/01 09:34:17;;;;;;;1999.90;999.90;;;7.60;99.90;;;;;;5074690;28;20898;-69
2022/12/01 09:36:43;;;;;;;1999.90;999.90;;;7.60;99.90;;;;;;5073916;28;20293;-68
2022/12/01 09:39:13;;;;;;;1999.90;999.90;;;7.60;99.90;;;;;;5073844;28;20454;-68
2022/12/01 09:42:00;;;;;;;1999.90;999.90;;;7.60;99.90;;;;;;5073689;28;20471;-68
2022/12/01 09:44:29;;;;;;;1999.90;999.90;;;7.60;99.90;;;;;;5098823;28;20404;-68
2022/12/01 09:47:06;;;;;;;1999.90;999.90;;;7.60;99.90;;;;;;5090023;28;20439;-68
2022/12/01 09:50:05;;;;;;;1999.90;999.90;;;7.60;99.90;;;;;;5099776;28;20416;-69
2022/12/01 09:52:48;;;;;;;1999.90;999.90;;;7.60;99.90;;;;;;5095252;28;20526;-69
2022/12/01 09:55:18;;;;;;;1999.90;999.90;;;7.60;99.90;;;;;;5086251;28;20420;-69
2022/12/01 09:57:50;;;;;;;1999.90;999.90;;;7.50;99.90;;;;;;5092747;28;20401;-69
2022/12/01 10:00:21;;;;;;;1999.90;999.90;;;7.50;99.90;;;;;;5094238;28;20813;-69
2022/12/01 10:03:24;;;;;;;1999.90;999.90;;;7.50;99.90;;;;;;5111152;28;20427;-69
2022/12/01 10:05:57;;;;;;;1999.90;999.90;;;7.50;99.90;;;;;;5099047;28;20446;-68
2022/12/01 10:08:26;;;;;;;1999.90;999.90;;;7.50;99.90;;;;;;5106511;28;20913;-69
2022/12/01 10:10:56;;;;;;;1999.90;999.90;;;7.40;99.90;;;;;;5095553;28;20410;-69
2022/12/01 10:13:26;;;;;;;1999.90;999.90;;;7.40;99.90;;;;;;5091293;28;20442;-67
2022/12/01 10:16:08;;;;;;;1999.90;999.90;;;7.40;99.90;;;;;;5088881;28;20419;-68
2022/12/01 10:18:44;;;;;;;1999.90;999.90;;;7.40;99.90;;;;;;5086424;28;20403;-68
2022/12/01 10:21:25;;;;;;;1999.90;999.90;;;7.40;99.90;;;;;;5072559;28;20381;-69
2022/12/01 10:24:08;;;;;;;1999.90;999.90;;;7.40;99.90;;;;;;5071969;28;20432;-68
2022/12/01 10:26:42;;;;;;;1999.90;999.90;;;7.50;99.90;;;;;;5091556;28;20488;-68
2022/12/01 10:29:12;;;;;;;1999.90;999.90;;;7.50;99.90;;;;;;5071219;28;20501;-68
2022/12/01 10:32:09;;;;;;;1999.90;999.90;;;7.50;99.90;;;;;;5072685;28;20927;-68
2022/12/01 10:34:39;;;;;;;1999.90;999.90;;;7.50;99.90;;;;;;5072611;28;20420;-69
2022/12/01 10:37:05;;;;;;;1999.90;999.90;;;7.50;99.90;;;;;;5071304;28;20895;-68
2022/12/01 10:39:37;;;;;;;1999.90;999.90;;;7.50;99.90;;;;;;5071353;28;20419;-68
2022/12/01 10:42:25;;;;;;;1999.90;999.90;;;7.50;99.90;;;;;;5076686;28;20469;-69
2022/12/01 10:44:53;;;;;;;1999.90;999.90;;;7.50;99.90;;;;;;5091140;28;20881;-68
2022/12/01 10:47:24;;;;;;;1999.90;999.90;;;7.50;99.90;;;;;;5090915;28;20459;-68
2022/12/01 10:49:50;;;;;;;1999.90;999.90;;;7.60;99.90;;;;;;5091346;28;20384;-68
2022/12/01 10:52:37;;;;;;;1999.90;999.90;;;7.60;99.90;;;;;;5091228;28;20435;-68
2022/12/01 10:55:23;;;;;;;1999.90;999.90;;;7.70;99.90;;;;;;5091232;28;20465;-68
2022/12/01 10:57:51;;;;;;;1999.90;999.90;;;7.70;99.90;;;;;;5090067;28;20882;-67
2022/12/01 11:00:26;;;;;;;1999.90;999.90;;;7.80;99.90;;;;;;5090761;28;20890;-69
2022/12/01 11:02:51;;;;;;;1999.90;999.90;;;7.80;99.90;;;;;;5078014;28;20443;-73
2022/12/01 11:05:24;;;;;;;1999.90;999.90;;;7.80;99.90;;;;;;5080716;28;20413;-68
2022/12/01 11:07:50;;;;;;;1999.90;999.90;;;7.90;99.90;;;;;;5069875;28;20405;-68
2022/12/01 11:10:18;;;;;;;1999.90;999.90;;;7.90;99.90;;;;;;5052472;28;20443;-70
2022/12/01 11:13:32;;;;;;;1999.90;999.90;;;7.90;99.90;;;;;;5071612;28;20970;-69
2022/12/01 11:16:00;;;;;;;1999.90;999.90;;;7.90;99.90;;;;;;4972317;28;20577;-70
2022/12/01 11:18:34;;;;;;;1999.90;999.90;;;7.90;99.90;;;;;;4988769;28;20467;-70
2022/12/01 11:21:14;;;;;;;1999.90;999.90;;;8.00;99.90;;;;;;5032962;28;20480;-67
2022/12/01 11:23:47;;;;;;;1999.90;999.90;;;8.00;99.90;;;;;;5071050;28;20436;-67
2022/12/01 11:26:19;;;;;;;1999.90;999.90;;;8.10;99.90;;;;;;5070381;28;20873;-68
2022/12/01 11:28:56;;;;;;;1999.90;999.90;;;8.20;99.90;;;;;;5069982;28;20827;-68
2022/12/01 11:31:34;;;;;;;1999.90;999.90;;;8.20;99.90;;;;;;5073604;28;20774;-67
2022/12/01 11:34:00;;;;;;;1999.90;999.90;;;8.30;99.90;;;;;;5072535;28;20981;-68
2022/12/01 11:36:41;;;;;;;1999.90;999.90;;;8.30;99.90;;;;;;5089940;28;20408;-67
2022/12/01 11:39:23;;;;;;;1999.90;999.90;;;8.40;99.90;;;;;;5088341;28;20511;-67
2022/12/01 11:41:54;;;;;;;1999.90;999.90;;;8.40;99.90;;;;;;5083493;28;20569;-69
2022/12/01 11:44:20;;;;;;;1999.90;999.90;;;8.40;99.90;;;;;;5094125;28;20404;-69
2022/12/01 11:46:47;;;;;;;1999.90;999.90;;;8.40;99.90;;;;;;5074803;28;20953;-68
2022/12/01 11:49:24;;;;;;;1999.90;999.90;;;8.40;99.90;;;;;;5093829;28;20253;-68
2022/12/01 11:51:50;;;;;;;1999.90;999.90;;;8.40;99.90;;;;;;5093469;28;20423;-69
2022/12/01 11:54:21;;;;;;;1999.90;999.90;;;8.40;99.90;;;;;;5094085;28;20416;-69
2022/12/01 11:56:48;;;;;;;1999.90;999.90;;;8.40;99.90;;;;;;5092808;28;20629;-68
2022/12/01 11:59:24;;;;;;;1999.90;999.90;;;8.20;99.90;;;;;;5091131;28;20491;-69
2022/12/01 12:02:08;;;;;;;1999.90;999.90;;;8.10;99.90;;;;;;5093237;28;20406;-69
2022/12/01 12:04:54;;;;;;;1999.90;999.90;;;8.10;99.90;;;;;;5093854;28;20466;-69
2022/12/01 12:07:37;;;;;;;1999.90;999.90;;;8.10;99.90;;;;;;5093554;28;20807;-69
2022/12/01 12:10:18;;;;;;;1999.90;999.90;;;8.00;99.90;;;;;;5093719;28;20389;-69
2022/12/01 12:13:08;;;;;;;1999.90;999.90;;;8.00;99.90;;;;;;5093330;28;20417;-68
2022/12/01 12:15:55;;;;;;;1999.90;999.90;;;7.90;99.90;;;;;;5094561;28;20407;-68
2022/12/01 12:18:58;;;;;;;1999.90;999.90;;;7.90;99.90;;;;;;5092474;28;20404;-69
2022/12/01 12:22:08;;;;;;;1999.90;999.90;;;7.80;99.90;;;;;;5092575;28;20396;-69
2022/12/01 12:24:44;;;;;;;1999.90;999.90;;;7.80;99.90;;;;;;5072335;28;20427;-69
2022/12/01 12:27:25;;;;;;;1999.90;999.90;;;7.70;99.90;;;;;;5083982;28;20458;-69
2022/12/01 12:30:20;;;;;;;1999.90;999.90;;;7.70;99.90;;;;;;5092303;28;20866;-69